Time;durP1;ratioP1;P1;durP2;ratioP2;P2;SDS_P1;SDS_P2;PMS_P1;PMS_P2;Temp;Humidity;BMP_temperature;BMP_pressure;BME280_temperature;BME280_humidity;BME280_pressure;Samples;Min_cycle;Max_cycle;Signal;HPM_P1;HPM_P2
2023/04/22 00:02:15;;;;;;;8.02;5.75;;;8.20;68.00;;;;;;5088480;28;20039;-53
2023/04/22 00:04:41;;;;;;;6.72;4.63;;;8.20;64.70;;;;;;5067522;28;20028;-53
2023/04/22 00:07:07;;;;;;;8.90;5.63;;;8.10;64.60;;;;;;5085590;28;20576;-54
2023/04/22 00:09:32;;;;;;;9.00;5.35;;;8.20;69.90;;;;;;5067224;28;20116;-54
2023/04/22 00:11:58;;;;;;;10.00;5.70;;;8.10;71.40;;;;;;5087800;28;20047;-55
2023/04/22 00:14:24;;;;;;;11.95;5.80;;;8.00;72.30;;;;;;5077940;28;20036;-55
2023/04/22 00:16:49;;;;;;;7.60;5.00;;;8.00;70.30;;;;;;5069232;28;20029;-49
2023/04/22 00:19:15;;;;;;;9.30;5.18;;;7.90;73.90;;;;;;5086066;28;20024;-52
2023/04/22 00:21:40;;;;;;;8.57;5.30;;;7.90;71.70;;;;;;5069102;28;20081;-54
2023/04/22 00:24:06;;;;;;;6.80;5.00;;;7.80;76.20;;;;;;5086101;28;20094;-52
2023/04/22 00:26:32;;;;;;;8.60;5.05;;;7.70;75.80;;;;;;5069295;28;20068;-52
2023/04/22 00:28:57;;;;;;;8.77;5.05;;;7.70;75.30;;;;;;5086142;28;20044;-54
2023/04/22 00:31:23;;;;;;;7.07;4.32;;;7.60;76.50;;;;;;5088921;28;20040;-49
2023/04/22 00:33:48;;;;;;;11.75;5.32;;;7.60;75.50;;;;;;5075136;28;20439;-55
2023/04/22 00:36:14;;;;;;;9.85;4.63;;;7.60;76.60;;;;;;5088883;28;20050;-52
2023/04/22 00:38:44;;;;;;;10.00;4.80;;;7.60;76.70;;;;;;5071625;28;20031;-52
2023/04/22 00:41:10;;;;;;;6.40;5.10;;;7.50;75.50;;;;;;5089130;28;20081;-53
2023/04/22 00:43:36;;;;;;;11.25;6.05;;;7.50;83.00;;;;;;5069600;28;20486;-53
2023/04/22 00:46:01;;;;;;;9.75;5.68;;;7.50;86.10;;;;;;5089057;28;20063;-54
2023/04/22 00:48:28;;;;;;;10.32;5.50;;;7.50;81.80;;;;;;5069838;28;20531;-54
2023/04/22 00:50:53;;;;;;;8.95;5.97;;;7.40;82.20;;;;;;5088741;28;20176;-55
2023/04/22 00:53:19;;;;;;;10.70;5.28;;;7.40;85.10;;;;;;5068747;28;20111;-54
2023/04/22 00:55:45;;;;;;;12.48;6.45;;;7.40;86.00;;;;;;5088815;28;20032;-54
2023/04/22 00:58:10;;;;;;;8.88;5.95;;;7.30;84.20;;;;;;5067129;28;20063;-51
2023/04/22 01:00:36;;;;;;;9.98;5.65;;;7.30;84.50;;;;;;5088399;28;20055;-53
2023/04/22 01:03:01;;;;;;;9.25;5.60;;;7.30;84.50;;;;;;5068709;28;20600;-54
2023/04/22 01:05:30;;;;;;;9.93;5.97;;;7.30;83.10;;;;;;5083019;28;20444;-56
2023/04/22 01:07:55;;;;;;;8.27;5.95;;;7.30;84.50;;;;;;5068342;28;20036;-55
2023/04/22 01:10:21;;;;;;;10.70;5.90;;;7.30;84.40;;;;;;5085838;28;20111;-54
2023/04/22 01:12:47;;;;;;;10.30;6.78;;;7.30;84.40;;;;;;5088304;28;20396;-54
2023/04/22 01:15:12;;;;;;;9.38;5.90;;;7.30;88.20;;;;;;5066830;28;20515;-51
2023/04/22 01:17:38;;;;;;;11.73;5.47;;;7.20;90.50;;;;;;5087544;28;20027;-54
2023/04/22 01:20:04;;;;;;;8.00;5.22;;;7.20;86.00;;;;;;5066812;28;20488;-54
2023/04/22 01:22:34;;;;;;;11.18;5.65;;;7.20;86.80;;;;;;5090103;28;20085;-54
2023/04/22 01:25:01;;;;;;;9.02;5.43;;;7.20;86.30;;;;;;5081450;28;20028;-55
2023/04/22 01:27:27;;;;;;;7.95;5.82;;;7.20;87.60;;;;;;5092313;28;20123;-53
2023/04/22 01:29:53;;;;;;;9.75;5.28;;;7.20;87.60;;;;;;5070629;28;20548;-54
2023/04/22 01:32:19;;;;;;;9.18;5.55;;;7.20;84.40;;;;;;5091378;28;20122;-53
2023/04/22 01:34:45;;;;;;;8.70;5.70;;;7.20;79.60;;;;;;5070446;28;20120;-54
2023/04/22 01:37:10;;;;;;;9.82;6.22;;;7.30;82.90;;;;;;5091229;28;20036;-51
2023/04/22 01:39:36;;;;;;;14.65;6.47;;;7.30;85.90;;;;;;5070555;28;20029;-51
2023/04/22 01:42:02;;;;;;;11.43;5.95;;;7.40;83.10;;;;;;5091231;28;20580;-51
2023/04/22 01:44:28;;;;;;;10.63;6.07;;;7.40;81.70;;;;;;5081580;28;20028;-49
2023/04/22 01:46:53;;;;;;;14.93;6.00;;;7.40;79.10;;;;;;5072310;28;20035;-54
2023/04/22 01:49:20;;;;;;;9.15;6.47;;;7.50;77.40;;;;;;5089131;28;20067;-54
2023/04/22 01:51:45;;;;;;;11.25;6.15;;;7.60;77.90;;;;;;5072092;28;20027;-57
2023/04/22 01:54:11;;;;;;;10.48;6.32;;;7.70;76.40;;;;;;5089003;28;20431;-56
2023/04/22 01:56:39;;;;;;;11.63;6.25;;;7.70;75.20;;;;;;5071874;28;20117;-50
2023/04/22 01:59:05;;;;;;;11.27;7.20;;;7.90;74.20;;;;;;5089435;28;20024;-54
2023/04/22 02:01:30;;;;;;;15.50;7.07;;;7.90;74.00;;;;;;5071678;28;20024;-53
2023/04/22 02:03:56;;;;;;;13.57;6.25;;;8.00;72.70;;;;;;5088878;28;20279;-53
2023/04/22 02:06:21;;;;;;;12.15;7.22;;;8.00;72.80;;;;;;5073088;28;20025;-55
2023/04/22 02:08:47;;;;;;;9.93;6.25;;;8.00;73.90;;;;;;5088960;28;20153;-52
2023/04/22 02:11:12;;;;;;;12.55;6.85;;;8.00;72.10;;;;;;5091458;28;20036;-54
2023/04/22 02:13:39;;;;;;;10.82;6.13;;;7.90;72.90;;;;;;5073799;28;20082;-53
2023/04/22 02:16:06;;;;;;;11.75;6.05;;;7.90;73.90;;;;;;5091287;28;20048;-54
2023/04/22 02:18:31;;;;;;;10.65;7.03;;;7.90;74.60;;;;;;5072535;28;20023;-54
2023/04/22 02:20:57;;;;;;;12.85;7.10;;;8.00;75.00;;;;;;5091335;28;20601;-53
2023/04/22 02:23:23;;;;;;;11.50;7.30;;;8.00;75.10;;;;;;5071478;28;20043;-52
2023/04/22 02:25:49;;;;;;;10.40;6.82;;;8.00;75.30;;;;;;5091310;28;20113;-55
2023/04/22 02:28:15;;;;;;;14.63;7.00;;;8.00;73.60;;;;;;5070154;28;20029;-55
2023/04/22 02:30:41;;;;;;;11.15;6.95;;;8.00;74.70;;;;;;5091276;28;20085;-54
2023/04/22 02:33:06;;;;;;;12.43;6.93;;;8.00;74.70;;;;;;5072308;28;20466;-52
2023/04/22 02:35:32;;;;;;;12.18;6.55;;;8.00;74.50;;;;;;5089497;28;20450;-53
2023/04/22 02:37:57;;;;;;;11.52;7.10;;;8.00;74.00;;;;;;5090833;28;20436;-54
2023/04/22 02:40:23;;;;;;;14.55;7.30;;;8.00;75.00;;;;;;5069456;28;20020;-53
2023/04/22 02:42:48;;;;;;;13.18;7.53;;;8.00;74.70;;;;;;5090096;28;20395;-54
2023/04/22 02:45:14;;;;;;;12.35;8.02;;;8.00;74.40;;;;;;5069208;28;20044;-53
2023/04/22 02:47:40;;;;;;;14.15;8.00;;;8.00;75.00;;;;;;5087853;28;20034;-54
2023/04/22 02:50:06;;;;;;;13.95;7.68;;;8.00;74.60;;;;;;5069699;28;20396;-52
2023/04/22 02:52:35;;;;;;;13.55;7.68;;;8.00;73.80;;;;;;5087979;28;20020;-53
2023/04/22 02:55:00;;;;;;;11.05;7.53;;;8.10;73.30;;;;;;5069762;28;20032;-52
2023/04/22 02:57:26;;;;;;;13.15;7.72;;;8.10;73.60;;;;;;5087631;28;20028;-52
2023/04/22 02:59:52;;;;;;;11.38;7.53;;;8.00;73.00;;;;;;5090808;28;20032;-54
2023/04/22 03:02:17;;;;;;;13.90;8.15;;;8.10;73.40;;;;;;5074997;28;20076;-53
2023/04/22 03:04:43;;;;;;;16.27;8.25;;;8.10;73.50;;;;;;5087700;28;20110;-54
2023/04/22 03:07:09;;;;;;;11.88;7.90;;;8.00;73.60;;;;;;5068420;28;20396;-54
2023/04/22 03:09:35;;;;;;;16.15;8.20;;;8.00;72.60;;;;;;5088453;28;20032;-53
2023/04/22 03:12:02;;;;;;;12.85;7.82;;;8.00;73.20;;;;;;5070648;28;20047;-53
2023/04/22 03:14:27;;;;;;;14.63;8.20;;;8.00;73.20;;;;;;5087854;28;20407;-53
2023/04/22 03:16:53;;;;;;;14.65;7.95;;;8.00;73.20;;;;;;5070512;28;20021;-55
2023/04/22 03:19:18;;;;;;;11.48;7.60;;;8.00;72.60;;;;;;5087620;28;20586;-54
2023/04/22 03:21:44;;;;;;;18.25;8.65;;;8.00;72.40;;;;;;5090025;28;20040;-51
2023/04/22 03:24:09;;;;;;;14.63;8.32;;;7.90;73.90;;;;;;5075316;28;20039;-56
2023/04/22 03:26:35;;;;;;;14.68;7.65;;;8.00;73.40;;;;;;5079242;28;20025;-54
2023/04/22 03:29:00;;;;;;;12.32;7.63;;;7.90;73.30;;;;;;5087486;28;20063;-52
2023/04/22 03:31:26;;;;;;;13.52;7.95;;;7.90;74.50;;;;;;5080516;28;20492;-54
2023/04/22 03:33:51;;;;;;;13.05;7.78;;;7.80;75.10;;;;;;5086908;28;20101;-54
2023/04/22 03:36:17;;;;;;;14.95;9.02;;;7.80;75.20;;;;;;5070047;28;20060;-53
2023/04/22 03:38:42;;;;;;;13.52;8.50;;;7.80;75.30;;;;;;5087184;28;21385;-53
2023/04/22 03:41:08;;;;;;;17.92;9.55;;;7.80;75.80;;;;;;5089668;28;20036;-53
2023/04/22 03:43:33;;;;;;;19.08;8.88;;;7.80;76.00;;;;;;5068180;28;20028;-55
2023/04/22 03:45:59;;;;;;;13.65;8.55;;;7.70;76.80;;;;;;5088872;28;20036;-54
2023/04/22 03:48:24;;;;;;;15.50;8.90;;;7.70;76.90;;;;;;5078643;28;20032;-57
2023/04/22 03:50:50;;;;;;;14.93;8.30;;;7.70;77.80;;;;;;5069814;28;20696;-52
2023/04/22 03:53:15;;;;;;;14.98;8.80;;;7.70;78.20;;;;;;5086782;28;20035;-54
2023/04/22 03:55:41;;;;;;;13.73;8.68;;;7.70;78.10;;;;;;5069853;28;20752;-53
2023/04/22 03:58:06;;;;;;;14.90;9.25;;;7.60;78.00;;;;;;5086694;28;20024;-53
2023/04/22 04:00:32;;;;;;;17.92;8.52;;;7.60;78.50;;;;;;5070534;28;20041;-55
2023/04/22 04:02:58;;;;;;;18.20;9.43;;;7.60;79.00;;;;;;5087596;28;20035;-55
2023/04/22 04:05:24;;;;;;;11.90;7.88;;;7.60;78.90;;;;;;5080087;28;20024;-54
2023/04/22 04:07:49;;;;;;;16.23;9.15;;;7.60;80.00;;;;;;5068101;28;20560;-54
2023/04/22 04:10:15;;;;;;;13.10;8.38;;;7.60;79.70;;;;;;5089152;28;20031;-52
2023/04/22 04:12:40;;;;;;;18.42;9.10;;;7.60;80.90;;;;;;5069483;28;20028;-55
2023/04/22 04:15:06;;;;;;;14.88;8.50;;;7.60;80.90;;;;;;5086418;28;20124;-53
2023/04/22 04:17:32;;;;;;;13.15;8.55;;;7.60;80.80;;;;;;5069597;28;20028;-56
2023/04/22 04:19:57;;;;;;;17.52;9.52;;;7.60;80.50;;;;;;5086663;28;20032;-56
2023/04/22 04:22:23;;;;;;;18.83;9.70;;;7.70;79.40;;;;;;5089203;28;20032;-55
2023/04/22 04:24:49;;;;;;;13.90;8.48;;;7.70;80.30;;;;;;5067630;28;20040;-55
2023/04/22 04:27:14;;;;;;;17.00;9.82;;;7.80;79.70;;;;;;5088331;28;20067;-55
2023/04/22 04:29:40;;;;;;;14.85;8.82;;;7.80;79.10;;;;;;5067572;28;20145;-53
2023/04/22 04:32:07;;;;;;;16.65;9.88;;;7.80;78.90;;;;;;5088236;28;20024;-54
2023/04/22 04:34:33;;;;;;;18.67;9.93;;;7.80;78.90;;;;;;5067327;28;20099;-52
2023/04/22 04:36:59;;;;;;;18.23;9.18;;;8.00;77.40;;;;;;5088477;28;20028;-56
2023/04/22 04:39:25;;;;;;;16.67;9.38;;;8.10;77.00;;;;;;5067226;28;20581;-56
2023/04/22 04:41:53;;;;;;;15.93;9.60;;;8.30;76.10;;;;;;5088327;28;20054;-56
2023/04/22 04:44:19;;;;;;;16.40;9.45;;;8.60;74.10;;;;;;5067169;28;20028;-55
2023/04/22 04:46:46;;;;;;;12.90;8.25;;;9.00;71.20;;;;;;5088102;28;20044;-55
2023/04/22 04:49:11;;;;;;;18.05;9.05;;;9.60;69.60;;;;;;5067129;28;20028;-54
2023/04/22 04:51:37;;;;;;;14.60;9.20;;;10.20;64.90;;;;;;5087828;28;20499;-55
2023/04/22 04:54:03;;;;;;;14.20;8.43;;;10.80;60.80;;;;;;5077855;28;20693;-55
2023/04/22 04:56:29;;;;;;;9.25;6.95;;;11.40;58.80;;;;;;5071502;28;20040;-53
2023/04/22 04:58:55;;;;;;;12.15;8.25;;;11.90;55.20;;;;;;5092832;28;20038;-53
2023/04/22 05:01:21;;;;;;;13.25;7.60;;;12.40;54.00;;;;;;5075818;28;20029;-56
2023/04/22 05:03:46;;;;;;;14.90;8.43;;;12.80;51.40;;;;;;5092624;28;20032;-55
2023/04/22 05:06:12;;;;;;;13.95;8.45;;;13.10;48.70;;;;;;5072065;28;20028;-50
2023/04/22 05:08:37;;;;;;;11.95;8.30;;;13.40;44.30;;;;;;5092572;28;20633;-49
2023/04/22 05:11:03;;;;;;;13.35;7.40;;;13.70;46.00;;;;;;5074460;28;20043;-54
2023/04/22 05:13:28;;;;;;;14.38;8.13;;;14.20;40.20;;;;;;5084045;28;20035;-53
2023/04/22 05:15:54;;;;;;;11.93;8.18;;;14.50;37.10;;;;;;5079233;28;20078;-53
2023/04/22 05:18:21;;;;;;;19.88;8.80;;;14.90;34.20;;;;;;5094045;28;20031;-52
2023/04/22 05:20:46;;;;;;;12.43;9.05;;;15.30;36.00;;;;;;5078570;28;20027;-55
2023/04/22 05:23:12;;;;;;;10.90;7.55;;;15.60;29.90;;;;;;5095363;28;20520;-55
2023/04/22 05:25:37;;;;;;;13.00;8.35;;;15.70;32.60;;;;;;5077311;28;20154;-55
2023/04/22 05:28:03;;;;;;;10.95;7.53;;;15.70;31.70;;;;;;5095576;28;20028;-53
2023/04/22 05:30:28;;;;;;;9.93;7.55;;;15.90;28.60;;;;;;5076211;28;20491;-54
2023/04/22 05:32:54;;;;;;;13.30;8.27;;;16.10;29.00;;;;;;5094508;28;20032;-54
2023/04/22 05:35:19;;;;;;;11.50;8.45;;;16.30;25.80;;;;;;5073995;28;20028;-52
2023/04/22 05:37:45;;;;;;;12.68;8.10;;;16.90;27.10;;;;;;5095305;28;20552;-54
2023/04/22 05:40:11;;;;;;;12.80;8.43;;;17.30;21.30;;;;;;5073555;28;20087;-54
2023/04/22 05:42:36;;;;;;;12.50;8.23;;;17.40;24.10;;;;;;5065270;28;20518;-55
2023/04/22 05:45:02;;;;;;;10.70;7.75;;;17.60;21.60;;;;;;5071778;28;20030;-52
2023/04/22 05:47:29;;;;;;;9.70;6.78;;;17.50;20.40;;;;;;5088334;28;20048;-52
2023/04/22 05:49:55;;;;;;;11.15;7.70;;;18.20;22.60;;;;;;5088323;28;20055;-54
2023/04/22 05:52:20;;;;;;;9.18;7.07;;;18.60;21.00;;;;;;5092537;28;20063;-52
2023/04/22 05:54:46;;;;;;;10.02;6.80;;;18.90;19.80;;;;;;5080446;28;20063;-54
2023/04/22 05:57:11;;;;;;;11.60;7.07;;;19.30;18.50;;;;;;5071250;28;20032;-53
2023/04/22 05:59:37;;;;;;;13.60;7.65;;;20.20;18.50;;;;;;5075275;28;20040;-52
2023/04/22 06:02:02;;;;;;;9.88;7.00;;;20.70;15.00;;;;;;5077016;28;20806;-53
2023/04/22 06:04:28;;;;;;;16.25;8.60;;;20.90;14.00;;;;;;5092826;28;20024;-50
2023/04/22 06:06:54;;;;;;;14.55;8.00;;;19.80;11.30;;;;;;5069872;28;20420;-53
2023/04/22 06:09:20;;;;;;;12.07;8.65;;;20.00;14.10;;;;;;5070719;28;20040;-52
2023/04/22 06:11:46;;;;;;;10.32;7.90;;;20.00;10.40;;;;;;5077622;28;20052;-54
2023/04/22 06:14:12;;;;;;;13.13;8.63;;;20.00;10.40;;;;;;5087528;28;20093;-52
2023/04/22 06:16:38;;;;;;;11.68;7.47;;;20.30;11.60;;;;;;5089686;28;20035;-53
2023/04/22 06:19:04;;;;;;;12.13;7.80;;;21.00;10.50;;;;;;5067771;28;20097;-55
2023/04/22 06:21:31;;;;;;;12.00;8.32;;;21.50;8.40;;;;;;5087911;28;20028;-54
2023/04/22 06:23:57;;;;;;;11.55;8.63;;;21.30;8.10;;;;;;5077922;28;20442;-52
2023/04/22 06:26:22;;;;;;;12.32;8.63;;;20.70;7.50;;;;;;5068143;28;20036;-54
2023/04/22 06:28:48;;;;;;;13.50;7.43;;;21.00;9.30;;;;;;5085747;28;20039;-55
2023/04/22 06:31:13;;;;;;;10.75;7.70;;;21.80;8.20;;;;;;5080507;28;20032;-54
2023/04/22 06:33:39;;;;;;;13.80;7.65;;;22.90;8.10;;;;;;5079937;28;20511;-54
2023/04/22 06:36:05;;;;;;;12.65;8.82;;;22.90;6.30;;;;;;5069541;28;20036;-51
2023/04/22 06:38:30;;;;;;;15.68;8.80;;;22.60;4.10;;;;;;5072884;28;20038;-53
2023/04/22 06:40:56;;;;;;;10.77;7.93;;;22.50;5.00;;;;;;5069077;28;20025;-54
2023/04/22 06:43:21;;;;;;;9.32;6.93;;;22.80;4.30;;;;;;5080405;28;20102;-54
2023/04/22 06:45:47;;;;;;;10.40;7.65;;;23.20;4.40;;;;;;5072812;28;20438;-51
2023/04/22 06:48:12;;;;;;;10.50;7.13;;;23.10;3.50;;;;;;5080633;28;20025;-52
2023/04/22 06:50:38;;;;;;;10.25;7.65;;;23.20;5.30;;;;;;5070986;28;20147;-52
2023/04/22 06:53:03;;;;;;;9.52;7.05;;;22.30;4.10;;;;;;5089682;28;20031;-55
2023/04/22 06:55:29;;;;;;;10.07;7.30;;;22.20;4.60;;;;;;5067917;28;20064;-53
2023/04/22 06:57:55;;;;;;;9.75;7.60;;;22.90;4.30;;;;;;5090138;28;20032;-54
2023/04/22 07:00:20;;;;;;;14.40;7.88;;;23.10;3.00;;;;;;5069106;28;20024;-55
2023/04/22 07:02:46;;;;;;;9.52;7.57;;;22.40;4.40;;;;;;5090099;28;20043;-52
2023/04/22 07:05:11;;;;;;;11.77;8.15;;;22.60;4.00;;;;;;5074066;28;20051;-56
2023/04/22 07:07:37;;;;;;;11.93;8.18;;;22.80;4.50;;;;;;5082282;28;20024;-55
2023/04/22 07:10:03;;;;;;;10.43;6.95;;;22.50;4.00;;;;;;5079100;28;20035;-56
2023/04/22 07:12:28;;;;;;;10.88;8.13;;;23.20;4.60;;;;;;5070557;28;20044;-55
2023/04/22 07:14:54;;;;;;;9.52;7.65;;;23.80;2.90;;;;;;5087855;28;20089;-54
2023/04/22 07:17:21;;;;;;;9.40;6.78;;;23.90;3.50;;;;;;5070733;28;20146;-54
2023/04/22 07:19:47;;;;;;;11.93;7.82;;;24.60;2.50;;;;;;5087328;28;20028;-53
2023/04/22 07:22:13;;;;;;;8.02;6.75;;;24.50;2.70;;;;;;5070669;28;20044;-55
2023/04/22 07:24:39;;;;;;;8.27;6.90;;;25.30;2.70;;;;;;5087381;28;20511;-51
2023/04/22 07:27:05;;;;;;;11.77;7.50;;;25.80;2.20;;;;;;5090456;28;20047;-54
2023/04/22 07:29:31;;;;;;;7.85;6.55;;;25.40;1.50;;;;;;5074111;28;20060;-54
2023/04/22 07:31:56;;;;;;;9.02;6.32;;;26.20;1.80;;;;;;5090327;28;20024;-53
2023/04/22 07:34:22;;;;;;;7.50;6.63;;;26.70;1.00;;;;;;5072597;28;20051;-52
2023/04/22 07:36:50;;;;;;;11.85;7.22;;;26.60;1.00;;;;;;5089888;28;20032;-54
2023/04/22 07:39:15;;;;;;;9.60;7.15;;;26.40;1.00;;;;;;5071354;28;20027;-53
2023/04/22 07:41:41;;;;;;;8.02;7.00;;;26.30;1.00;;;;;;5090248;28;20035;-53
2023/04/22 07:44:06;;;;;;;7.72;6.85;;;25.50;1.00;;;;;;5069319;28;20028;-54
2023/04/22 07:46:31;;;;;;;11.10;7.53;;;24.60;1.00;;;;;;5090125;28;20389;-54
2023/04/22 07:48:57;;;;;;;9.85;6.22;;;24.40;1.50;;;;;;5068807;28;20063;-50
2023/04/22 07:51:24;;;;;;;9.73;6.40;;;24.80;1.40;;;;;;5089514;28;20030;-54
2023/04/22 07:53:50;;;;;;;8.35;6.80;;;25.30;1.00;;;;;;5069815;28;20020;-56
2023/04/22 07:56:15;;;;;;;9.00;7.40;;;25.00;1.00;;;;;;5087744;28;20024;-54
2023/04/22 07:58:41;;;;;;;8.90;6.57;;;24.40;1.00;;;;;;5068721;28;20049;-51
2023/04/22 08:01:06;;;;;;;6.90;5.50;;;23.90;2.00;;;;;;5087094;28;20028;-54
2023/04/22 08:03:32;;;;;;;9.68;7.05;;;24.40;2.10;;;;;;5089363;28;20043;-52
2023/04/22 08:05:57;;;;;;;8.55;6.63;;;24.80;1.50;;;;;;5062796;28;20040;-53
2023/04/22 08:08:24;;;;;;;7.90;6.90;;;24.30;1.00;;;;;;5077557;28;20488;-54
2023/04/22 08:10:50;;;;;;;8.50;7.07;;;23.90;2.00;;;;;;5069410;28;20611;-55
2023/04/22 08:13:15;;;;;;;8.52;6.95;;;23.80;2.30;;;;;;5086660;28;20495;-52
2023/04/22 08:15:41;;;;;;;10.20;7.22;;;23.20;3.00;;;;;;5089674;28;20024;-52
2023/04/22 08:18:06;;;;;;;8.57;6.50;;;22.90;3.20;;;;;;5071337;28;20103;-55
2023/04/22 08:20:32;;;;;;;7.93;6.70;;;23.20;4.00;;;;;;5089315;28;20024;-56
2023/04/22 08:22:59;;;;;;;9.43;6.72;;;23.10;4.00;;;;;;5070124;28;20035;-52
2023/04/22 08:25:25;;;;;;;11.25;8.10;;;23.70;3.80;;;;;;5089417;28;20035;-53
2023/04/22 08:27:50;;;;;;;9.20;6.93;;;23.10;3.80;;;;;;5068988;28;20032;-52
2023/04/22 08:30:16;;;;;;;8.77;7.05;;;22.80;4.00;;;;;;5087813;28;20127;-52
2023/04/22 08:32:42;;;;;;;6.75;5.90;;;23.00;4.00;;;;;;5065359;28;20068;-54
2023/04/22 08:35:08;;;;;;;14.15;7.35;;;23.40;4.50;;;;;;5089313;28;20672;-55
2023/04/22 08:37:33;;;;;;;8.82;6.35;;;23.80;4.10;;;;;;5069553;28;20036;-51
2023/04/22 08:39:59;;;;;;;7.43;6.38;;;23.70;3.90;;;;;;5086696;28;20032;-54
2023/04/22 08:42:26;;;;;;;11.48;6.18;;;23.70;4.00;;;;;;5089271;28;20454;-55
2023/04/22 08:44:52;;;;;;;9.57;7.20;;;23.90;4.30;;;;;;5067408;28;20028;-53
2023/04/22 08:47:20;;;;;;;9.25;7.07;;;24.20;2.80;;;;;;5088242;28;20055;-55
2023/04/22 08:49:46;;;;;;;11.48;7.43;;;24.00;3.70;;;;;;5067213;28;20040;-52
2023/04/22 08:52:14;;;;;;;11.50;7.10;;;23.90;3.50;;;;;;5065542;28;20064;-54
2023/04/22 08:54:42;;;;;;;10.38;7.18;;;23.50;3.50;;;;;;5088671;28;20028;-55
2023/04/22 08:57:10;;;;;;;8.75;6.28;;;23.40;3.80;;;;;;5067148;28;20036;-54
2023/04/22 08:59:37;;;;;;;11.65;7.57;;;23.50;3.10;;;;;;5088266;28;20066;-55
2023/04/22 09:02:04;;;;;;;10.30;7.53;;;23.40;3.10;;;;;;5066874;28;20090;-54
2023/04/22 09:04:30;;;;;;;12.10;6.95;;;23.30;3.50;;;;;;5088448;28;20063;-54
2023/04/22 09:06:56;;;;;;;10.73;7.00;;;23.30;3.50;;;;;;5064222;28;20456;-50
2023/04/22 09:09:22;;;;;;;10.32;6.95;;;23.50;3.50;;;;;;5088079;28;20035;-52
2023/04/22 09:11:47;;;;;;;10.50;7.40;;;23.50;2.80;;;;;;5067353;28;20036;-60
2023/04/22 09:14:14;;;;;;;10.98;7.20;;;23.50;2.60;;;;;;5085954;28;20048;-55
2023/04/22 09:16:45;;;;;;;9.80;7.10;;;23.50;2.80;;;;;;5088650;28;20085;-59
2023/04/22 09:19:12;;;;;;;9.00;6.60;;;23.70;3.00;;;;;;5073166;28;20423;-58
2023/04/22 09:21:39;;;;;;;7.63;5.80;;;23.80;2.90;;;;;;5075033;28;20032;-59
2023/04/22 09:24:07;;;;;;;8.43;6.10;;;24.00;3.00;;;;;;5086360;28;20409;-58
2023/04/22 09:26:33;;;;;;;9.95;6.85;;;24.00;3.00;;;;;;5088348;28;20036;-59
2023/04/22 09:28:59;;;;;;;7.38;6.13;;;24.00;3.60;;;;;;5067227;28;20527;-59
2023/04/22 09:31:27;;;;;;;8.48;5.90;;;23.60;2.50;;;;;;5087921;28;20445;-58
2023/04/22 09:33:58;;;;;;;10.18;7.00;;;23.60;2.80;;;;;;5076960;28;20039;-58
2023/04/22 09:36:27;;;;;;;11.60;6.55;;;23.30;1.80;;;;;;5068497;28;20028;-59
2023/04/22 09:38:56;;;;;;;8.55;6.00;;;23.30;2.70;;;;;;5085661;28;20035;-59
2023/04/22 09:41:32;;;;;;;10.15;6.20;;;23.50;2.80;;;;;;5068318;28;20029;-56
2023/04/22 09:44:00;;;;;;;9.75;6.90;;;23.50;1.70;;;;;;5087989;28;20115;-58
2023/04/22 09:46:26;;;;;;;9.73;7.18;;;23.10;2.70;;;;;;5092156;28;20032;-54
2023/04/22 09:48:54;;;;;;;10.32;6.85;;;22.90;2.70;;;;;;5081031;28;20039;-57
2023/04/22 09:51:20;;;;;;;10.23;6.45;;;22.50;3.80;;;;;;5071768;28;20524;-57
2023/04/22 09:53:58;;;;;;;8.05;5.78;;;22.50;3.60;;;;;;5089541;28;20020;-58
2023/04/22 09:56:48;;;;;;;8.32;5.78;;;22.60;3.50;;;;;;5051768;28;20025;-58
2023/04/22 09:59:16;;;;;;;6.45;5.65;;;23.00;3.40;;;;;;5077127;28;20354;-57
2023/04/22 10:01:42;;;;;;;8.82;6.35;;;23.30;2.80;;;;;;5091921;28;20036;-56
2023/04/22 10:04:09;;;;;;;7.45;5.90;;;23.00;3.10;;;;;;5070120;28;20511;-57
2023/04/22 10:06:36;;;;;;;8.25;5.97;;;23.10;3.20;;;;;;5085738;28;20396;-57
2023/04/22 10:09:03;;;;;;;11.02;5.82;;;22.90;2.60;;;;;;5070273;28;20028;-57
2023/04/22 10:11:30;;;;;;;10.65;6.22;;;22.60;2.60;;;;;;5091216;28;20047;-57
2023/04/22 10:13:56;;;;;;;13.43;6.03;;;22.90;2.70;;;;;;5080981;28;20515;-57
2023/04/22 10:16:24;;;;;;;7.30;6.13;;;23.10;2.40;;;;;;5071598;28;20286;-57
2023/04/22 10:18:53;;;;;;;9.10;6.65;;;23.00;3.20;;;;;;5089045;28;20036;-59
2023/04/22 10:21:19;;;;;;;9.93;6.05;;;22.80;2.90;;;;;;5071041;28;20133;-58
2023/04/22 10:23:46;;;;;;;8.55;6.10;;;22.60;3.90;;;;;;5089027;28;20319;-58
2023/04/22 10:26:12;;;;;;;10.02;6.13;;;22.40;3.40;;;;;;5071515;28;20059;-57
2023/04/22 10:28:43;;;;;;;7.63;5.40;;;22.00;3.80;;;;;;5088683;28;20112;-58
2023/04/22 10:31:21;;;;;;;9.38;6.60;;;22.00;3.80;;;;;;5071166;28;20033;-57
2023/04/22 10:33:46;;;;;;;8.68;6.03;;;21.90;2.40;;;;;;5088457;28;20044;-57
2023/04/22 10:36:18;;;;;;;8.90;5.03;;;21.50;2.20;;;;;;5071527;28;20174;-59
2023/04/22 10:38:49;;;;;;;7.53;5.47;;;21.30;2.60;;;;;;5088862;28;20047;-59
2023/04/22 10:41:15;;;;;;;10.13;5.20;;;21.30;3.70;;;;;;5071673;28;20029;-58
2023/04/22 10:43:45;;;;;;;7.85;4.80;;;21.40;3.30;;;;;;5088488;28;20523;-59
2023/04/22 10:46:41;;;;;;;8.32;5.30;;;21.60;2.60;;;;;;5070759;28;20028;-58
2023/04/22 10:49:11;;;;;;;7.65;4.97;;;21.60;1.80;;;;;;5074168;28;20028;-58
2023/04/22 10:51:41;;;;;;;5.88;3.78;;;21.40;1.90;;;;;;5050722;28;20059;-58
2023/04/22 10:54:27;;;;;;;8.02;4.40;;;21.40;2.30;;;;;;5073822;28;20036;-57
2023/04/22 10:57:04;;;;;;;8.98;5.32;;;21.50;2.50;;;;;;5050666;28;20159;-56
2023/04/22 10:59:31;;;;;;;8.32;5.20;;;21.50;2.30;;;;;;5088192;28;20032;-58
2023/04/22 11:02:06;;;;;;;7.32;4.97;;;21.50;1.70;;;;;;5090654;28;20043;-57
2023/04/22 11:04:32;;;;;;;7.97;4.65;;;21.50;2.80;;;;;;5073578;28;20036;-59
2023/04/22 11:07:13;;;;;;;7.47;4.30;;;21.50;2.10;;;;;;5068696;28;20036;-59
2023/04/22 11:09:42;;;;;;;4.40;3.72;;;21.50;1.60;;;;;;5087910;28;20056;-57
2023/04/22 11:12:38;;;;;;;5.07;4.00;;;21.50;1.90;;;;;;5063444;28;20024;-58
2023/04/22 11:15:12;;;;;;;10.95;4.93;;;21.60;2.40;;;;;;5085846;28;20055;-59
2023/04/22 11:17:40;;;;;;;7.00;4.50;;;21.50;2.30;;;;;;5079182;28;20554;-56
2023/04/22 11:20:07;;;;;;;5.47;4.38;;;21.50;2.00;;;;;;5074784;28;20037;-56
2023/04/22 11:22:38;;;;;;;8.15;4.22;;;21.60;2.30;;;;;;5088202;28;20118;-59
2023/04/22 11:25:05;;;;;;;6.88;4.43;;;21.60;1.50;;;;;;5065046;28;20035;-59
2023/04/22 11:27:31;;;;;;;6.82;4.35;;;21.60;1.80;;;;;;5087918;28;20434;-59
2023/04/22 11:30:00;;;;;;;7.70;5.13;;;21.60;1.80;;;;;;5066170;28;20059;-59
2023/04/22 11:32:26;;;;;;;5.35;4.07;;;21.70;1.70;;;;;;5087796;28;20036;-59
2023/04/22 11:34:52;;;;;;;7.25;4.28;;;21.70;1.90;;;;;;5067560;28;20049;-59
2023/04/22 11:37:18;;;;;;;5.72;4.20;;;21.60;1.70;;;;;;5079460;28;20393;-58
2023/04/22 11:39:44;;;;;;;6.35;4.78;;;21.60;1.90;;;;;;5087223;28;20342;-59
2023/04/22 11:42:12;;;;;;;5.82;4.22;;;21.60;1.70;;;;;;5077189;28;20047;-56
2023/04/22 11:44:38;;;;;;;6.90;4.72;;;21.70;1.80;;;;;;5081310;28;20059;-57
2023/04/22 11:47:03;;;;;;;7.93;4.93;;;21.70;1.70;;;;;;5078411;28;20102;-56
2023/04/22 11:49:31;;;;;;;6.97;4.57;;;21.60;1.90;;;;;;5087150;28;20032;-56
2023/04/22 11:51:57;;;;;;;6.20;4.65;;;21.70;2.00;;;;;;5076696;28;20744;-59
2023/04/22 11:54:36;;;;;;;6.63;4.00;;;21.70;1.80;;;;;;5067950;28;20055;-57
2023/04/22 11:57:07;;;;;;;7.10;4.00;;;21.70;2.00;;;;;;5074292;28;20304;-59
2023/04/22 11:59:33;;;;;;;6.70;4.88;;;21.70;1.50;;;;;;5081290;28;20035;-57
2023/04/22 12:01:58;;;;;;;9.43;4.70;;;21.60;1.40;;;;;;5084867;28;20507;-58
2023/04/22 12:04:24;;;;;;;7.53;4.68;;;21.40;1.00;;;;;;5067915;28;20038;-58
2023/04/22 12:06:52;;;;;;;11.55;5.50;;;21.30;1.60;;;;;;5075541;28;20028;-58
2023/04/22 12:09:18;;;;;;;8.98;4.53;;;21.30;2.10;;;;;;5063469;28;20032;-58
2023/04/22 12:11:45;;;;;;;6.97;4.57;;;21.30;1.80;;;;;;5076545;28;20198;-59
2023/04/22 12:14:11;;;;;;;6.22;4.75;;;21.30;2.00;;;;;;5084803;28;20117;-59
2023/04/22 12:16:41;;;;;;;10.77;4.90;;;21.40;1.90;;;;;;5067892;28;20028;-58
2023/04/22 12:19:06;;;;;;;7.80;4.60;;;21.30;1.80;;;;;;5076306;28;20047;-58
2023/04/22 12:21:32;;;;;;;9.45;5.03;;;21.30;1.80;;;;;;5074353;28;20036;-58
2023/04/22 12:24:03;;;;;;;7.22;5.20;;;21.30;1.40;;;;;;5086206;28;20521;-56
2023/04/22 12:26:29;;;;;;;6.25;5.00;;;21.30;1.40;;;;;;5052835;28;20522;-56
2023/04/22 12:28:57;;;;;;;6.95;4.40;;;21.30;2.00;;;;;;5087266;28;20028;-58
2023/04/22 12:31:23;;;;;;;7.45;4.32;;;21.30;1.90;;;;;;5067992;28;20332;-56
2023/04/22 12:33:49;;;;;;;8.25;5.38;;;21.40;2.40;;;;;;5079396;28;20407;-56
2023/04/22 12:36:17;;;;;;;8.65;5.03;;;21.20;1.90;;;;;;5067965;28;20027;-54
2023/04/22 12:38:42;;;;;;;6.75;4.97;;;21.30;2.40;;;;;;5087003;28;20089;-57
2023/04/22 12:41:08;;;;;;;6.63;4.72;;;21.20;2.70;;;;;;5067817;28;20040;-57
2023/04/22 12:43:35;;;;;;;6.88;4.93;;;21.30;2.50;;;;;;5087361;28;20039;-58
2023/04/22 12:46:01;;;;;;;6.78;4.68;;;21.30;2.40;;;;;;5066071;28;20116;-58
2023/04/22 12:48:27;;;;;;;5.97;4.65;;;21.30;2.50;;;;;;5087007;28;20537;-57